createdAt,value
2018-06-07T00:00:01.093Z,16.65
2018-06-07T00:03:05.499Z,16.65
2018-06-07T00:06:09.877Z,16.64
2018-06-07T00:09:14.262Z,16.67
2018-06-07T00:12:18.680Z,16.66
2018-06-07T00:15:23.085Z,16.64
2018-06-07T00:18:27.458Z,16.64
2018-06-07T00:21:31.860Z,16.66
2018-06-07T00:24:36.214Z,16.68
2018-06-07T00:27:40.601Z,16.66
2018-06-07T00:30:44.945Z,16.64
2018-06-07T00:33:50.198Z,16.63
2018-06-07T00:36:54.540Z,16.61
2018-06-07T00:39:58.931Z,16.54
2018-06-07T00:43:03.285Z,16.52
2018-06-07T00:46:07.665Z,16.49
2018-06-07T00:49:11.747Z,16.43
2018-06-07T00:52:16.107Z,16.39
2018-06-07T00:55:20.484Z,16.35
2018-06-07T00:58:24.854Z,16.34
2018-06-07T01:01:29.238Z,16.30
2018-06-07T01:04:33.629Z,16.27
2018-06-07T01:07:38.021Z,16.23
2018-06-07T01:10:42.384Z,16.19
2018-06-07T01:13:46.759Z,16.16
2018-06-07T01:16:51.114Z,16.12
2018-06-07T01:19:55.485Z,16.11
2018-06-07T01:22:59.865Z,16.08
2018-06-07T01:26:04.229Z,16.07
2018-06-07T01:31:27.236Z,16.03
2018-06-07T01:34:31.588Z,15.95
2018-06-07T01:37:35.998Z,15.90
2018-06-07T01:40:40.341Z,15.83
2018-06-07T01:43:44.764Z,15.79
2018-06-07T01:46:49.145Z,15.72
2018-06-07T01:49:53.497Z,15.68
2018-06-07T01:52:57.854Z,15.64
2018-06-07T01:56:02.213Z,15.59
2018-06-07T01:59:06.581Z,15.56
2018-06-07T02:02:10.957Z,15.50
2018-06-07T02:05:15.321Z,15.45
2018-06-07T02:08:19.751Z,15.40
2018-06-07T02:11:24.114Z,15.34
2018-06-07T02:14:28.493Z,15.24
2018-06-07T02:17:32.865Z,15.15
2018-06-07T02:20:37.256Z,15.09
2018-06-07T02:23:41.610Z,15.03
2018-06-07T02:26:45.964Z,14.96
2018-06-07T02:29:50.328Z,14.84
2018-06-07T02:32:54.720Z,14.79
2018-06-07T02:35:59.119Z,14.72
2018-06-07T02:39:03.587Z,14.66
2018-06-07T02:42:07.957Z,14.65
2018-06-07T02:45:12.370Z,14.67
2018-06-07T02:48:16.736Z,14.67
2018-06-07T02:51:21.121Z,14.70
2018-06-07T02:54:25.494Z,14.70
2018-06-07T02:57:29.909Z,14.72
2018-06-07T03:00:34.285Z,14.70
2018-06-07T03:03:38.660Z,14.70
2018-06-07T03:06:43.053Z,14.69
2018-06-07T03:09:47.408Z,14.64
2018-06-07T03:12:51.766Z,14.60
2018-06-07T03:15:56.152Z,14.61
2018-06-07T03:19:00.567Z,14.61
2018-06-07T03:22:04.954Z,14.57
2018-06-07T03:25:09.316Z,14.50
2018-06-07T03:28:13.701Z,14.46
2018-06-07T03:31:18.084Z,14.43
2018-06-07T03:34:22.524Z,14.39
2018-06-07T03:37:26.903Z,14.37
2018-06-07T03:40:31.290Z,14.40
2018-06-07T03:43:35.665Z,14.37
2018-06-07T03:46:40.025Z,14.37
2018-06-07T03:49:44.385Z,14.39
2018-06-07T03:52:48.755Z,14.44
2018-06-07T03:55:53.134Z,14.51
2018-06-07T03:58:57.513Z,14.61
2018-06-07T04:02:02.554Z,14.68
2018-06-07T04:05:06.926Z,14.74
2018-06-07T04:08:11.313Z,14.86
2018-06-07T04:11:15.702Z,14.92
2018-06-07T04:14:20.076Z,15.00
2018-06-07T04:17:24.481Z,15.07
2018-06-07T04:20:28.877Z,15.12
2018-06-07T04:23:33.242Z,15.22
2018-06-07T04:26:37.624Z,15.32
2018-06-07T04:29:41.965Z,15.40
2018-06-07T04:32:46.351Z,15.51
2018-06-07T04:35:50.725Z,15.60
2018-06-07T04:38:55.101Z,15.67
2018-06-07T04:41:59.469Z,15.77
2018-06-07T04:45:03.885Z,15.87
2018-06-07T04:48:08.249Z,15.94
2018-06-07T04:51:12.667Z,16.03
2018-06-07T04:54:17.019Z,16.13
2018-06-07T04:57:21.369Z,16.24
2018-06-07T05:00:25.734Z,16.35
2018-06-07T05:03:30.104Z,16.50
2018-06-07T05:06:34.472Z,16.63
2018-06-07T05:09:38.840Z,16.74
2018-06-07T05:12:43.220Z,16.85
2018-06-07T05:15:47.582Z,16.96
2018-06-07T05:18:51.967Z,17.06
2018-06-07T05:21:56.326Z,17.16
2018-06-07T05:25:00.716Z,17.28
2018-06-07T05:28:05.085Z,17.35
2018-06-07T05:31:09.465Z,17.41
2018-06-07T05:34:13.873Z,17.48
2018-06-07T05:37:18.253Z,17.61
2018-06-07T05:40:22.649Z,17.70
2018-06-07T05:43:27.018Z,17.78
2018-06-07T05:46:31.388Z,17.88
2018-06-07T05:49:35.778Z,17.95
2018-06-07T05:52:40.161Z,18.04
2018-06-07T05:55:44.560Z,18.11
2018-06-07T05:58:48.965Z,18.22
2018-06-07T06:01:53.325Z,18.30
2018-06-07T06:04:57.725Z,18.40
2018-06-07T06:08:02.104Z,18.47
2018-06-07T06:11:06.584Z,18.56
2018-06-07T06:14:10.931Z,18.65
2018-06-07T06:17:15.342Z,18.71
2018-06-07T06:20:19.709Z,18.80
2018-06-07T06:23:24.105Z,18.93
2018-06-07T06:26:28.494Z,18.97
2018-06-07T06:29:32.904Z,19.05
2018-06-07T06:32:37.308Z,19.13
2018-06-07T06:35:41.681Z,19.22
2018-06-07T06:38:47.919Z,19.33
2018-06-07T06:41:52.024Z,19.45
2018-06-07T06:44:56.458Z,19.58
2018-06-07T06:48:00.585Z,19.72
2018-06-07T06:51:05.042Z,19.84
2018-06-07T06:54:09.462Z,19.93
2018-06-07T06:57:13.857Z,20.03
2018-06-07T07:00:18.283Z,20.14
2018-06-07T07:03:22.704Z,20.24
2018-06-07T07:06:27.114Z,20.37
2018-06-07T07:09:31.502Z,20.53
2018-06-07T07:12:35.867Z,20.64
2018-06-07T07:15:40.415Z,20.77
2018-06-07T07:18:44.838Z,20.91
2018-06-07T07:21:49.200Z,21.01
2018-06-07T07:24:53.621Z,21.09
2018-06-07T07:27:58.057Z,21.22
2018-06-07T07:31:02.491Z,21.30
2018-06-07T07:34:06.941Z,21.37
2018-06-07T07:37:11.361Z,21.47
2018-06-07T07:40:15.725Z,21.56
2018-06-07T07:43:20.136Z,21.69
2018-06-07T07:46:24.526Z,21.82
2018-06-07T07:49:28.894Z,21.96
2018-06-07T07:52:33.409Z,22.12
2018-06-07T07:55:37.817Z,22.27
2018-06-07T07:58:42.194Z,22.39
2018-06-07T08:01:46.593Z,22.52
2018-06-07T08:04:50.989Z,22.66
2018-06-07T08:07:55.375Z,22.82
2018-06-07T08:10:59.769Z,22.98
2018-06-07T08:14:04.282Z,23.11
2018-06-07T08:17:08.668Z,23.21
2018-06-07T08:20:13.078Z,23.34
2018-06-07T08:23:17.447Z,23.45
2018-06-07T08:26:21.836Z,23.44
2018-06-07T08:29:26.210Z,23.53
2018-06-07T08:32:30.620Z,23.66
2018-06-07T08:35:34.778Z,23.80
2018-06-07T08:38:39.149Z,23.92
2018-06-07T08:41:43.543Z,23.98
2018-06-07T08:44:47.917Z,24.11
2018-06-07T08:47:52.361Z,24.25
2018-06-07T08:50:56.761Z,24.36
2018-06-07T08:54:01.178Z,24.50
2018-06-07T08:57:05.580Z,24.62
2018-06-07T09:00:10.114Z,24.76
2018-06-07T09:03:14.494Z,24.86
2018-06-07T09:06:18.894Z,24.97
2018-06-07T09:09:23.285Z,24.98
2018-06-07T09:12:27.709Z,24.98
2018-06-07T09:15:32.098Z,25.01
2018-06-07T09:18:36.537Z,25.10
2018-06-07T09:21:40.932Z,25.20
2018-06-07T09:24:45.316Z,25.34
2018-06-07T09:27:49.680Z,25.44
2018-06-07T09:30:54.069Z,25.49
2018-06-07T09:33:58.460Z,25.50
2018-06-07T09:37:02.841Z,25.50
2018-06-07T09:40:07.548Z,25.62
2018-06-07T09:43:11.916Z,25.64
2018-06-07T09:46:16.313Z,25.58
2018-06-07T09:49:20.693Z,25.59
2018-06-07T09:52:25.078Z,25.63
2018-06-07T09:55:29.461Z,25.71
2018-06-07T09:58:34.077Z,25.73
2018-06-07T10:01:38.470Z,25.77
2018-06-07T10:04:42.848Z,25.81
2018-06-07T10:07:47.264Z,25.82
2018-06-07T10:10:51.657Z,25.94
2018-06-07T10:13:56.025Z,25.97
2018-06-07T10:17:00.457Z,25.99
2018-06-07T10:20:04.881Z,25.99
2018-06-07T10:23:09.313Z,26.02
2018-06-07T10:26:13.682Z,26.13
2018-06-07T10:29:18.091Z,26.22
2018-06-07T10:32:22.434Z,26.26
2018-06-07T10:35:26.800Z,26.18
2018-06-07T10:38:31.156Z,26.14
2018-06-07T10:41:35.545Z,26.21
2018-06-07T10:44:39.930Z,26.31
2018-06-07T10:47:44.322Z,26.40
2018-06-07T10:50:48.721Z,26.46
2018-06-07T10:53:52.825Z,26.56
2018-06-07T10:56:57.186Z,26.62
2018-06-07T11:00:01.588Z,26.62
2018-06-07T11:03:06.078Z,26.59
2018-06-07T11:06:10.461Z,26.61
2018-06-07T11:09:14.853Z,26.68
2018-06-07T11:12:19.272Z,26.73
2018-06-07T11:15:23.686Z,26.79
2018-06-07T11:18:28.091Z,26.80
2018-06-07T11:21:32.485Z,26.76
2018-06-07T11:24:36.876Z,26.85
2018-06-07T11:27:41.241Z,26.83
2018-06-07T11:30:45.645Z,26.89
2018-06-07T11:33:50.003Z,26.87
2018-06-07T11:36:54.453Z,26.87
2018-06-07T11:39:58.858Z,26.89
2018-06-07T11:43:03.238Z,27.01
2018-06-07T11:46:07.613Z,27.08
2018-06-07T11:49:11.978Z,27.09
2018-06-07T11:52:16.369Z,27.10
2018-06-07T11:55:20.729Z,27.15
2018-06-07T11:58:25.105Z,27.05
2018-06-07T12:01:29.474Z,27.04
2018-06-07T12:04:33.872Z,26.95
2018-06-07T12:07:38.251Z,26.86
2018-06-07T12:10:42.651Z,26.77
2018-06-07T12:13:47.013Z,26.71
2018-06-07T12:16:51.386Z,26.72
2018-06-07T12:19:55.749Z,26.71
2018-06-07T12:23:00.129Z,26.70
2018-06-07T12:26:04.493Z,26.72
2018-06-07T12:29:08.866Z,26.80
2018-06-07T12:32:13.255Z,26.86
2018-06-07T12:35:17.614Z,26.95
2018-06-07T12:38:21.988Z,26.91
2018-06-07T12:41:26.347Z,26.90
2018-06-07T12:44:30.733Z,26.87
2018-06-07T12:47:35.109Z,26.88
2018-06-07T12:50:39.498Z,26.83
2018-06-07T12:53:43.859Z,26.70
2018-06-07T12:56:48.234Z,26.71
2018-06-07T12:59:52.596Z,26.67
2018-06-07T13:02:56.944Z,26.71
2018-06-07T13:06:01.327Z,26.59
2018-06-07T13:09:08.104Z,26.57
2018-06-07T13:12:12.475Z,26.58
2018-06-07T13:15:16.852Z,26.60
2018-06-07T13:18:21.212Z,26.64
2018-06-07T13:21:25.625Z,26.68
2018-06-07T13:24:30.500Z,26.68
2018-06-07T13:27:35.263Z,26.77
2018-06-07T13:30:39.628Z,26.78
2018-06-07T13:33:44.005Z,26.82
2018-06-07T13:36:48.365Z,26.80
2018-06-07T13:39:52.745Z,26.77
2018-06-07T13:42:57.118Z,26.78
2018-06-07T13:46:01.493Z,26.88
2018-06-07T13:49:05.873Z,27.00
2018-06-07T13:52:10.319Z,27.10
2018-06-07T13:55:19.394Z,27.24
2018-06-07T13:58:24.512Z,27.32
2018-06-07T14:01:29.798Z,27.34
2018-06-07T14:04:38.227Z,27.44
2018-06-07T14:07:42.650Z,27.53
2018-06-07T14:10:47.103Z,27.64
2018-06-07T14:13:51.433Z,27.78
2018-06-07T14:16:55.813Z,27.90
2018-06-07T14:20:00.200Z,28.00
2018-06-07T14:23:04.575Z,28.01
2018-06-07T14:26:08.993Z,27.97
2018-06-07T14:29:13.385Z,28.06
2018-06-07T14:32:17.775Z,28.22
2018-06-07T14:35:22.157Z,28.37
2018-06-07T14:38:26.536Z,28.48
2018-06-07T14:41:30.884Z,28.61
2018-06-07T14:44:35.269Z,28.85
2018-06-07T14:47:39.629Z,29.12
2018-06-07T14:50:43.987Z,29.33
2018-06-07T14:53:48.414Z,29.53
2018-06-07T14:56:52.797Z,29.73
2018-06-07T14:59:57.177Z,29.97
2018-06-07T15:03:01.549Z,30.28
2018-06-07T15:06:05.985Z,30.28
2018-06-07T15:09:10.361Z,30.39
2018-06-07T15:12:14.728Z,30.53
2018-06-07T15:15:19.837Z,30.78
2018-06-07T15:18:25.632Z,30.94
2018-06-07T15:21:30.121Z,31.03
2018-06-07T15:24:34.526Z,30.92
2018-06-07T15:27:39.021Z,30.89
2018-06-07T15:30:43.426Z,30.96
2018-06-07T15:33:47.838Z,31.11
2018-06-07T15:36:52.238Z,31.13
2018-06-07T15:39:56.689Z,31.26
2018-06-07T15:43:01.028Z,31.45
2018-06-07T15:46:05.461Z,31.44
2018-06-07T15:49:09.861Z,31.43
2018-06-07T15:52:14.252Z,31.47
2018-06-07T15:55:18.656Z,31.39
2018-06-07T15:58:23.062Z,31.28
2018-06-07T16:01:27.461Z,31.18
2018-06-07T16:04:31.878Z,30.92
2018-06-07T16:07:36.480Z,30.62
2018-06-07T16:10:40.898Z,30.43
2018-06-07T16:13:45.264Z,30.11
2018-06-07T16:16:49.668Z,29.69
2018-06-07T16:19:54.109Z,29.29
2018-06-07T16:22:58.513Z,28.82
2018-06-07T16:26:02.881Z,28.35
2018-06-07T16:29:07.269Z,27.85
2018-06-07T16:32:11.654Z,27.55
2018-06-07T16:35:16.049Z,27.27
2018-06-07T16:38:20.416Z,26.95
2018-06-07T16:41:24.797Z,26.71
2018-06-07T16:44:29.165Z,26.45
2018-06-07T16:47:33.536Z,26.25
2018-06-07T16:50:37.897Z,26.09
2018-06-07T16:53:42.272Z,25.92
2018-06-07T16:56:46.646Z,25.77
2018-06-07T16:59:50.996Z,25.65
2018-06-07T17:02:55.349Z,25.66
2018-06-07T17:05:59.734Z,25.51
2018-06-07T17:09:05.916Z,25.34
2018-06-07T17:12:10.285Z,25.22
2018-06-07T17:15:14.665Z,25.08
2018-06-07T17:18:19.078Z,25.02
2018-06-07T17:21:23.455Z,24.95
2018-06-07T17:24:27.820Z,24.89
2018-06-07T17:27:32.186Z,24.76
2018-06-07T17:30:36.588Z,24.64
2018-06-07T17:33:40.965Z,24.58
2018-06-07T17:36:45.341Z,24.53
2018-06-07T17:39:49.756Z,24.49
2018-06-07T17:42:54.125Z,24.51
2018-06-07T17:45:58.273Z,24.60
2018-06-07T17:49:02.660Z,24.59
2018-06-07T17:52:07.076Z,24.58
2018-06-07T17:55:11.477Z,24.50
2018-06-07T17:58:15.878Z,24.39
2018-06-07T18:01:20.224Z,24.30
2018-06-07T18:04:24.597Z,24.18
2018-06-07T18:07:28.982Z,24.09
2018-06-07T18:10:33.329Z,23.99
2018-06-07T18:13:37.700Z,23.92
2018-06-07T18:16:42.121Z,23.82
2018-06-07T18:19:46.554Z,23.77
2018-06-07T18:22:51.046Z,23.70
2018-06-07T18:25:55.440Z,23.63
2018-06-07T18:28:59.949Z,23.56
2018-06-07T18:32:04.388Z,23.50
2018-06-07T18:35:08.889Z,23.44
2018-06-07T18:38:13.365Z,23.40
2018-06-07T18:41:17.805Z,23.37
2018-06-07T18:44:22.174Z,23.29
2018-06-07T18:47:26.585Z,23.19
2018-06-07T18:50:30.992Z,23.15
2018-06-07T18:53:35.381Z,23.12
2018-06-07T18:56:39.728Z,23.05
2018-06-07T18:59:44.109Z,22.97
2018-06-07T19:02:48.534Z,22.91
2018-06-07T19:05:53.087Z,22.85
2018-06-07T19:09:02.739Z,22.81
2018-06-07T19:12:07.247Z,22.78
2018-06-07T19:15:13.306Z,22.74
2018-06-07T19:18:17.889Z,22.65
2018-06-07T19:21:22.358Z,22.57
2018-06-07T19:24:27.029Z,22.50
2018-06-07T19:27:31.577Z,22.46
2018-06-07T19:30:35.989Z,22.40
2018-06-07T19:33:45.532Z,22.30
2018-06-07T19:36:49.913Z,22.23
2018-06-07T19:39:59.688Z,22.14
2018-06-07T19:43:04.062Z,22.06
2018-06-07T19:46:08.470Z,21.98
2018-06-07T19:49:12.852Z,21.90
2018-06-07T19:52:17.256Z,21.85
2018-06-07T19:55:21.653Z,21.78
2018-06-07T19:58:26.053Z,21.68
2018-06-07T20:01:30.442Z,21.59
2018-06-07T20:04:34.589Z,21.52
2018-06-07T20:07:38.991Z,21.46
2018-06-07T20:10:43.385Z,21.35
2018-06-07T20:13:47.729Z,21.26
2018-06-07T20:16:52.130Z,21.15
2018-06-07T20:19:56.484Z,21.08
2018-06-07T20:23:00.884Z,21.01
2018-06-07T20:26:05.301Z,20.99
2018-06-07T20:29:09.673Z,20.89
2018-06-07T20:32:14.058Z,20.78
2018-06-07T20:35:18.458Z,20.69
2018-06-07T20:38:22.824Z,20.55
2018-06-07T20:41:27.209Z,20.44
2018-06-07T20:44:31.573Z,20.36
2018-06-07T20:47:35.973Z,20.26
2018-06-07T20:50:40.345Z,20.20
2018-06-07T20:53:44.724Z,20.09
2018-06-07T20:56:49.114Z,20.02
2018-06-07T20:59:53.477Z,19.93
2018-06-07T21:02:57.853Z,19.84
2018-06-07T21:06:02.238Z,19.73
2018-06-07T21:09:09.508Z,19.63
2018-06-07T21:12:13.868Z,19.51
2018-06-07T21:15:18.234Z,19.41
2018-06-07T21:18:22.602Z,19.34
2018-06-07T21:21:26.975Z,19.28
2018-06-07T21:24:31.321Z,19.20
2018-06-07T21:27:35.718Z,19.10
2018-06-07T21:30:40.101Z,19.00
2018-06-07T21:33:44.492Z,18.90
2018-06-07T21:36:48.839Z,18.82
2018-06-07T21:39:53.261Z,18.73
2018-06-07T21:42:57.627Z,18.68
2018-06-07T21:46:01.998Z,18.61
2018-06-07T21:49:06.356Z,18.53
2018-06-07T21:52:10.716Z,18.47
2018-06-07T21:55:15.078Z,18.44
2018-06-07T21:58:19.464Z,18.42
2018-06-07T22:01:23.820Z,18.37
2018-06-07T22:04:28.209Z,18.28
2018-06-07T22:07:32.596Z,18.20
2018-06-07T22:10:36.970Z,18.13
2018-06-07T22:13:41.361Z,18.05
2018-06-07T22:16:45.735Z,17.99
2018-06-07T22:19:50.326Z,17.94
2018-06-07T22:22:54.725Z,17.91
2018-06-07T22:25:59.120Z,17.84
2018-06-07T22:29:03.485Z,17.80
2018-06-07T22:32:07.848Z,17.77
2018-06-07T22:35:12.221Z,17.71
2018-06-07T22:38:16.593Z,17.63
2018-06-07T22:41:20.992Z,17.59
2018-06-07T22:44:25.355Z,17.52
2018-06-07T22:47:29.748Z,17.46
2018-06-07T22:50:34.150Z,17.40
2018-06-07T22:53:38.522Z,17.36
2018-06-07T22:56:42.913Z,17.28
2018-06-07T22:59:47.305Z,17.24
2018-06-07T23:02:53.161Z,17.19
2018-06-07T23:05:57.528Z,17.15
2018-06-07T23:09:01.930Z,17.06
2018-06-07T23:12:06.305Z,16.97
2018-06-07T23:15:10.694Z,16.91
2018-06-07T23:18:15.058Z,16.86
2018-06-07T23:21:19.429Z,16.83
2018-06-07T23:24:23.826Z,16.79
2018-06-07T23:27:28.189Z,16.77
2018-06-07T23:30:32.550Z,16.75
2018-06-07T23:33:36.912Z,16.73
2018-06-07T23:36:41.289Z,16.70
2018-06-07T23:39:45.672Z,16.65
2018-06-07T23:42:50.050Z,16.62
2018-06-07T23:45:54.420Z,16.58
2018-06-07T23:48:58.797Z,16.54
2018-06-07T23:52:03.171Z,16.48
2018-06-07T23:55:07.584Z,16.43
2018-06-07T23:58:11.950Z,16.39
